Time;durP1;ratioP1;P1;durP2;ratioP2;P2;SDS_P1;SDS_P2;PMS_P1;PMS_P2;Temp;Humidity;BMP_temperature;BMP_pressure;BME280_temperature;BME280_humidity;BME280_pressure;Samples;Min_cycle;Max_cycle;Signal;HPM_P1;HPM_P2
2021/11/16 00:01:47;;;;;;;8.13;4.65;;;0.20;79.80;;;;;;5035942;28;20059;-83
2021/11/16 00:04:14;;;;;;;7.88;4.60;;;0.10;79.20;;;;;;5037225;28;20518;-83
2021/11/16 00:06:40;;;;;;;8.30;4.60;;;0.10;79.70;;;;;;5037205;28;20033;-83
2021/11/16 00:09:06;;;;;;;7.80;4.88;;;0.10;79.50;;;;;;5036662;28;20079;-84
2021/11/16 00:11:34;;;;;;;8.70;4.93;;;0.10;79.80;;;;;;5037284;28;20034;-84
2021/11/16 00:14:00;;;;;;;9.98;5.90;;;0.10;79.10;;;;;;5037117;28;20049;-84
2021/11/16 00:16:26;;;;;;;9.77;5.43;;;0.10;80.00;;;;;;5035333;28;20057;-84
2021/11/16 00:19:00;;;;;;;11.80;6.63;;;0.00;79.60;;;;;;5037123;28;20116;-85
2021/11/16 00:21:27;;;;;;;10.77;6.03;;;0.00;79.70;;;;;;5037059;28;20087;-86
2021/11/16 00:23:59;;;;;;;14.32;6.57;;;0.00;79.90;;;;;;5036176;28;20079;-84
2021/11/16 00:26:25;;;;;;;11.65;6.47;;;-0.10;80.10;;;;;;5037137;28;20022;-84
2021/11/16 00:28:52;;;;;;;14.85;6.70;;;-0.10;80.00;;;;;;5036976;28;20034;-84
2021/11/16 00:31:18;;;;;;;12.13;6.10;;;-0.10;80.90;;;;;;5035683;28;20033;-84
2021/11/16 00:33:43;;;;;;;11.73;6.75;;;-0.20;80.20;;;;;;5035795;28;20487;-84
2021/11/16 00:36:10;;;;;;;15.27;7.03;;;-0.20;80.00;;;;;;5035715;28;20021;-84
2021/11/16 00:38:36;;;;;;;13.32;7.00;;;-0.20;81.30;;;;;;5035547;28;20025;-85
2021/11/16 00:41:03;;;;;;;15.63;6.47;;;-0.30;80.90;;;;;;5036589;28;20045;-84
2021/11/16 00:43:29;;;;;;;13.13;7.10;;;-0.30;80.80;;;;;;5037212;28;20353;-84
2021/11/16 00:45:56;;;;;;;14.30;6.85;;;-0.30;81.20;;;;;;5035421;28;20101;-84
2021/11/16 00:48:25;;;;;;;11.98;6.15;;;-0.30;80.80;;;;;;5035442;28;20034;-84
2021/11/16 00:50:56;;;;;;;13.05;5.97;;;-0.40;81.00;;;;;;5035789;28;20472;-84
2021/11/16 00:53:23;;;;;;;12.25;5.70;;;-0.40;80.80;;;;;;5036880;28;20436;-84
2021/11/16 00:55:50;;;;;;;13.68;5.97;;;-0.50;81.10;;;;;;5036569;28;20021;-84
2021/11/16 00:58:15;;;;;;;11.80;6.00;;;-0.50;81.00;;;;;;5035035;28;20534;-85
2021/11/16 01:00:43;;;;;;;11.75;5.38;;;-0.50;81.30;;;;;;5035109;28;20112;-85
2021/11/16 01:03:10;;;;;;;10.77;5.18;;;-0.50;81.60;;;;;;5036887;28;20432;-84
2021/11/16 01:05:35;;;;;;;16.48;6.28;;;-0.50;82.00;;;;;;5035029;28;20029;-84
2021/11/16 01:08:01;;;;;;;10.25;5.78;;;-0.50;82.90;;;;;;5035079;28;20389;-84
2021/11/16 01:10:27;;;;;;;8.70;5.35;;;-0.50;82.80;;;;;;5035027;28;20037;-84
2021/11/16 01:12:53;;;;;;;11.15;5.85;;;-0.50;82.10;;;;;;5034900;28;20479;-84
2021/11/16 01:15:20;;;;;;;9.65;5.90;;;-0.50;83.00;;;;;;5067679;28;20167;-84
2021/11/16 01:17:47;;;;;;;10.38;5.95;;;-0.50;82.30;;;;;;5037149;28;20030;-84
2021/11/16 01:20:15;;;;;;;11.38;6.25;;;-0.50;83.30;;;;;;5035536;28;20034;-85
2021/11/16 01:22:42;;;;;;;12.45;5.53;;;-0.60;82.70;;;;;;5035413;28;20033;-86
2021/11/16 01:25:10;;;;;;;9.50;5.13;;;-0.60;81.70;;;;;;5036346;28;20071;-84
2021/11/16 01:27:36;;;;;;;13.68;5.30;;;-0.60;81.80;;;;;;5036541;28;20045;-84
2021/11/16 01:30:06;;;;;;;9.48;5.00;;;-0.60;82.30;;;;;;5036070;28;20029;-84
2021/11/16 01:32:45;;;;;;;9.23;4.93;;;-0.60;82.30;;;;;;5054458;28;20036;-85
2021/11/16 01:35:12;;;;;;;6.75;4.45;;;-0.70;81.70;;;;;;5059576;28;20073;-85
2021/11/16 01:37:38;;;;;;;8.43;4.60;;;-0.70;81.60;;;;;;5059705;28;20024;-84
2021/11/16 01:40:08;;;;;;;9.85;5.10;;;-0.70;81.60;;;;;;5043314;28;20029;-85
2021/11/16 01:42:34;;;;;;;9.32;4.88;;;-0.70;83.30;;;;;;5059795;28;20045;-85
2021/11/16 01:45:00;;;;;;;8.73;4.72;;;-0.70;82.20;;;;;;5059141;28;20097;-85
2021/11/16 01:47:26;;;;;;;7.82;4.50;;;-0.70;81.50;;;;;;5059052;28;20029;-87
2021/11/16 01:49:53;;;;;;;11.95;5.10;;;-0.80;81.50;;;;;;5059852;28;20061;-85
2021/11/16 01:52:18;;;;;;;11.38;5.65;;;-0.80;82.00;;;;;;5053886;28;20039;-85
2021/11/16 01:54:44;;;;;;;11.50;5.78;;;-0.80;82.70;;;;;;5052229;28;20478;-84
2021/11/16 01:57:11;;;;;;;11.52;5.55;;;-0.80;82.70;;;;;;5049126;28;20096;-85
2021/11/16 01:59:37;;;;;;;11.50;6.25;;;-0.80;82.50;;;;;;5034336;28;20379;-85
2021/11/16 02:02:04;;;;;;;12.27;6.70;;;-0.90;83.30;;;;;;5035501;28;20040;-84
2021/11/16 02:04:32;;;;;;;15.32;8.18;;;-0.90;83.10;;;;;;5034707;28;20459;-85
2021/11/16 02:06:58;;;;;;;14.95;7.25;;;-0.90;83.70;;;;;;5035298;28;20053;-85
2021/11/16 02:09:25;;;;;;;14.60;7.82;;;-0.90;83.00;;;;;;5035147;28;20049;-84
2021/11/16 02:11:51;;;;;;;16.80;8.57;;;-0.90;83.50;;;;;;5034204;28;20056;-83
2021/11/16 02:14:19;;;;;;;13.85;7.60;;;-0.90;83.20;;;;;;5034469;28;20067;-85
2021/11/16 02:16:47;;;;;;;12.13;7.13;;;-0.90;82.40;;;;;;5033895;28;20036;-84
2021/11/16 02:19:18;;;;;;;12.88;7.57;;;-0.90;82.80;;;;;;5033843;28;20026;-84
2021/11/16 02:21:44;;;;;;;12.10;6.90;;;-0.90;82.90;;;;;;5035286;28;20073;-85
2021/11/16 02:24:12;;;;;;;13.00;7.30;;;-0.90;82.90;;;;;;5035351;28;20038;-85
2021/11/16 02:26:38;;;;;;;13.15;6.80;;;-0.90;82.40;;;;;;5034372;28;20159;-84
2021/11/16 02:29:06;;;;;;;12.65;7.35;;;-0.90;82.70;;;;;;5035399;28;20064;-85
2021/11/16 02:31:33;;;;;;;13.85;7.55;;;-0.90;82.20;;;;;;5033631;28;20182;-85
2021/11/16 02:33:59;;;;;;;14.18;7.45;;;-0.90;83.00;;;;;;5017471;28;20032;-85
2021/11/16 02:36:31;;;;;;;14.05;7.50;;;-0.90;82.80;;;;;;5033711;28;20475;-85
2021/11/16 02:38:57;;;;;;;12.43;7.05;;;-0.90;82.40;;;;;;5033868;28;20026;-86
2021/11/16 02:41:29;;;;;;;11.35;6.78;;;-0.90;82.60;;;;;;5033034;28;20450;-86
2021/11/16 02:43:56;;;;;;;13.00;7.10;;;-0.90;82.10;;;;;;5034544;28;20049;-85
2021/11/16 02:46:22;;;;;;;10.88;6.40;;;-1.00;82.90;;;;;;5034457;28;20112;-84
2021/11/16 02:48:47;;;;;;;11.57;6.55;;;-1.00;82.30;;;;;;5034768;28;20053;-84
2021/11/16 02:51:14;;;;;;;11.70;6.20;;;-1.00;82.70;;;;;;5033919;28;20043;-84
2021/11/16 02:53:43;;;;;;;9.95;5.53;;;-1.10;82.50;;;;;;5034264;28;20032;-84
2021/11/16 02:56:11;;;;;;;12.23;6.10;;;-1.10;82.40;;;;;;5033323;28;20026;-85
2021/11/16 02:58:37;;;;;;;8.98;5.35;;;-1.10;82.80;;;;;;5033160;28;20357;-85
2021/11/16 03:01:07;;;;;;;9.80;5.65;;;-1.20;82.30;;;;;;5033708;28;20095;-85
2021/11/16 03:03:36;;;;;;;10.23;5.75;;;-1.20;82.90;;;;;;5034499;28;20025;-84
2021/11/16 03:06:03;;;;;;;8.90;5.53;;;-1.20;83.00;;;;;;5033169;28;20029;-85
2021/11/16 03:08:29;;;;;;;10.55;5.90;;;-1.20;82.90;;;;;;5034231;28;20460;-83
2021/11/16 03:10:58;;;;;;;18.00;6.43;;;-1.20;82.90;;;;;;5033232;28;20040;-83
2021/11/16 03:13:25;;;;;;;12.23;6.97;;;-1.20;82.60;;;;;;5033954;28;20361;-83
2021/11/16 03:15:52;;;;;;;11.02;6.55;;;-1.10;82.80;;;;;;5032118;28;20033;-84
2021/11/16 03:18:18;;;;;;;13.07;7.60;;;-1.10;82.70;;;;;;5065719;28;20071;-84
2021/11/16 03:20:45;;;;;;;13.15;7.75;;;-1.10;83.30;;;;;;5032537;28;20501;-84
2021/11/16 03:23:22;;;;;;;14.80;7.78;;;-1.10;82.90;;;;;;5033221;28;20025;-84
2021/11/16 03:25:52;;;;;;;15.43;8.23;;;-1.10;82.70;;;;;;5034501;28;20049;-84
2021/11/16 03:28:20;;;;;;;14.02;7.90;;;-1.10;82.90;;;;;;5036938;28;20025;-84
2021/11/16 03:30:49;;;;;;;12.18;6.75;;;-1.10;82.60;;;;;;5034546;28;20452;-84
2021/11/16 03:33:16;;;;;;;13.07;7.03;;;-1.10;82.20;;;;;;5033033;28;20036;-85
2021/11/16 03:35:42;;;;;;;11.57;6.47;;;-1.10;82.60;;;;;;5032599;28;20021;-83
2021/11/16 03:38:09;;;;;;;12.60;6.50;;;-1.10;82.10;;;;;;5034213;28;20104;-83
2021/11/16 03:40:37;;;;;;;10.90;6.43;;;-1.10;81.90;;;;;;5034049;28;20069;-83
2021/11/16 03:43:05;;;;;;;11.95;6.22;;;-1.10;81.80;;;;;;5034253;28;20060;-84
2021/11/16 03:45:32;;;;;;;10.23;4.78;;;-1.10;81.40;;;;;;5032620;28;20091;-84
2021/11/16 03:47:59;;;;;;;10.48;5.35;;;-1.10;81.40;;;;;;5034426;28;20033;-84
2021/11/16 03:50:27;;;;;;;8.93;4.80;;;-1.10;81.10;;;;;;5032736;28;20072;-84
2021/11/16 03:52:56;;;;;;;9.10;4.57;;;-1.10;81.00;;;;;;5033090;28;20025;-84
2021/11/16 03:55:29;;;;;;;13.23;5.75;;;-1.10;81.00;;;;;;5033631;28;20029;-84
2021/11/16 03:57:56;;;;;;;13.77;6.00;;;-1.10;80.80;;;;;;5033508;28;20037;-83
2021/11/16 04:00:30;;;;;;;16.58;7.80;;;-1.10;80.50;;;;;;5034525;28;20041;-84
2021/11/16 04:02:56;;;;;;;20.75;8.95;;;-1.10;80.60;;;;;;5034183;28;20063;-84
2021/11/16 04:05:23;;;;;;;20.95;9.82;;;-1.20;80.60;;;;;;5032436;28;20113;-84
2021/11/16 04:07:51;;;;;;;17.65;8.43;;;-1.20;80.80;;;;;;5033165;28;20030;-85
2021/11/16 04:10:17;;;;;;;22.20;9.10;;;-1.20;80.50;;;;;;5032302;28;20029;-86
2021/11/16 04:12:43;;;;;;;16.05;8.70;;;-1.20;80.40;;;;;;5032141;28;20029;-85
2021/11/16 04:15:12;;;;;;;20.40;10.27;;;-1.30;80.60;;;;;;5032201;28;20113;-86
2021/11/16 04:17:41;;;;;;;18.98;10.02;;;-1.30;80.80;;;;;;5036900;28;20456;-86
2021/11/16 04:20:14;;;;;;;21.48;10.98;;;-1.30;80.70;;;;;;5065366;28;20128;-86
2021/11/16 04:22:40;;;;;;;21.02;11.73;;;-1.30;80.60;;;;;;5065594;28;20026;-85
2021/11/16 04:25:06;;;;;;;19.98;11.75;;;-1.40;81.10;;;;;;5065584;28;20525;-85
2021/11/16 04:27:34;;;;;;;26.52;14.75;;;-1.40;81.10;;;;;;5035847;28;20047;-87
2021/11/16 04:30:00;;;;;;;31.20;16.75;;;-1.50;81.00;;;;;;5037579;28;20536;-86
2021/11/16 04:32:25;;;;;;;36.67;16.77;;;-1.50;81.80;;;;;;5036743;28;20033;-86
2021/11/16 04:34:52;;;;;;;28.95;15.32;;;-1.50;81.70;;;;;;5036430;28;20033;-87
2021/11/16 04:37:19;;;;;;;32.00;15.55;;;-1.40;81.80;;;;;;5052389;28;20032;-86
2021/11/16 04:39:44;;;;;;;25.42;12.27;;;-1.40;81.60;;;;;;5037104;28;20033;-85
2021/11/16 04:42:10;;;;;;;25.55;12.43;;;-1.50;81.40;;;;;;5036902;28;20049;-86
2021/11/16 04:44:37;;;;;;;19.75;10.45;;;-1.50;81.60;;;;;;5019177;28;20037;-85
2021/11/16 04:47:03;;;;;;;18.95;9.57;;;-1.60;81.70;;;;;;5037350;28;20029;-86
2021/11/16 04:49:41;;;;;;;22.30;10.88;;;-1.60;81.60;;;;;;5034923;28;20034;-86
2021/11/16 05:05:16;;;;;;;33.85;15.10;;;-1.70;83.40;;;;;;5036042;28;20373;-86
2021/11/16 05:08:01;;;;;;;36.25;15.88;;;-1.70;83.30;;;;;;5035530;28;20344;-85
2021/11/16 05:10:27;;;;;;;35.78;16.15;;;-1.70;83.20;;;;;;5036147;28;20044;-86
2021/11/16 05:12:55;;;;;;;38.85;17.50;;;-1.80;82.60;;;;;;5034533;28;20464;-86
2021/11/16 05:15:21;;;;;;;39.80;16.85;;;-1.80;82.60;;;;;;5068440;28;20026;-85
2021/11/16 05:17:48;;;;;;;36.95;17.50;;;-1.80;82.80;;;;;;5067964;28;20075;-85
2021/11/16 05:20:17;;;;;;;35.80;16.60;;;-1.80;83.40;;;;;;5034953;28;20041;-84
2021/11/16 05:22:44;;;;;;;46.53;20.65;;;-1.80;83.30;;;;;;5067527;28;20456;-85
2021/11/16 05:25:11;;;;;;;51.38;22.95;;;-1.90;83.50;;;;;;5067692;28;20026;-86
2021/11/16 05:27:38;;;;;;;51.00;21.90;;;-1.80;84.20;;;;;;5051571;28;20029;-85
2021/11/16 05:30:07;;;;;;;58.35;24.70;;;-1.80;84.00;;;;;;5034603;28;20368;-88
2021/11/16 05:32:37;;;;;;;55.88;23.80;;;-1.80;84.60;;;;;;5069303;28;20025;-84
2021/11/16 05:35:05;;;;;;;57.30;23.63;;;-1.70;84.00;;;;;;5068733;28;20047;-86
2021/11/16 05:37:31;;;;;;;61.28;23.70;;;-1.70;84.20;;;;;;5050510;28;20029;-86
2021/11/16 05:39:57;;;;;;;44.78;19.70;;;-1.70;84.30;;;;;;5067827;28;20384;-87
2021/11/16 05:42:23;;;;;;;39.38;18.13;;;-1.70;83.90;;;;;;5033500;28;20041;-85
2021/11/16 05:44:50;;;;;;;36.90;16.52;;;-1.70;83.80;;;;;;5034234;28;20025;-88
2021/11/16 05:47:16;;;;;;;34.72;17.15;;;-1.70;83.40;;;;;;5067464;28;20120;-83
2021/11/16 05:49:42;;;;;;;33.97;16.95;;;-1.70;84.00;;;;;;5068458;28;20136;-82
2021/11/16 05:52:09;;;;;;;34.33;16.92;;;-1.70;83.60;;;;;;5036368;28;20038;-86
2021/11/16 05:54:35;;;;;;;35.25;17.40;;;-1.70;83.70;;;;;;5034845;28;20038;-81
2021/11/16 05:57:04;;;;;;;37.42;17.88;;;-1.60;83.40;;;;;;5067226;28;20113;-85
2021/11/16 05:59:33;;;;;;;35.25;18.45;;;-1.60;83.40;;;;;;5067257;28;20516;-85
2021/11/16 06:02:04;;;;;;;45.70;20.73;;;-1.50;83.70;;;;;;5034756;28;20030;-86
2021/11/16 06:04:31;;;;;;;38.13;18.00;;;-1.50;84.30;;;;;;5035144;28;20052;-85
2021/11/16 06:06:57;;;;;;;43.47;20.35;;;-1.40;83.50;;;;;;5031743;28;20040;-87
2021/11/16 06:09:26;;;;;;;39.70;18.95;;;-1.30;83.70;;;;;;5030910;28;20026;-88
2021/11/16 06:11:53;;;;;;;47.05;23.52;;;-1.20;82.70;;;;;;5030916;28;20357;-86
2021/11/16 06:14:20;;;;;;;43.38;19.40;;;-1.10;82.90;;;;;;5029305;28;20143;-84
2021/11/16 06:16:46;;;;;;;62.28;25.80;;;-1.10;82.00;;;;;;5030257;28;20022;-84
2021/11/16 06:19:12;;;;;;;42.17;19.52;;;-1.00;82.00;;;;;;5029045;28;20029;-87
2021/11/16 06:21:38;;;;;;;33.13;14.80;;;-0.90;81.30;;;;;;5031507;28;20025;-87
2021/11/16 06:24:04;;;;;;;27.38;13.05;;;-0.80;80.60;;;;;;5032894;28;20198;-88
2021/11/16 06:26:33;;;;;;;24.83;12.32;;;-0.70;80.20;;;;;;5036905;28;20025;-82
2021/11/16 06:29:04;;;;;;;26.80;12.32;;;-0.60;80.10;;;;;;5036329;28;20459;-82
2021/11/16 06:31:31;;;;;;;22.42;10.68;;;-0.50;80.90;;;;;;5042853;28;20041;-83
2021/11/16 06:34:15;;;;;;;22.17;10.10;;;-0.10;82.60;;;;;;5056968;28;20017;-84
2021/11/16 06:36:42;;;;;;;16.02;7.90;;;0.50;82.30;;;;;;5057060;28;20039;-85
2021/11/16 06:39:14;;;;;;;23.63;8.05;;;1.00;82.40;;;;;;5054104;28;20101;-88
2021/11/16 06:41:41;;;;;;;15.70;8.80;;;1.60;82.20;;;;;;5054397;28;20060;-88
2021/11/16 06:44:08;;;;;;;16.38;7.65;;;2.10;80.70;;;;;;5052435;28;20048;-84
2021/11/16 06:46:34;;;;;;;18.73;9.32;;;2.50;79.90;;;;;;5047540;28;20044;-83
2021/11/16 06:49:06;;;;;;;18.85;10.27;;;2.90;76.80;;;;;;5032121;28;20032;-87
2021/11/16 06:51:37;;;;;;;22.70;12.40;;;3.30;76.20;;;;;;5031627;28;20049;-83
2021/11/16 06:54:08;;;;;;;23.13;12.48;;;3.70;74.10;;;;;;5045748;28;20080;-81
2021/11/16 06:56:34;;;;;;;20.90;10.90;;;4.00;73.20;;;;;;5030547;28;20037;-82
2021/11/16 06:59:00;;;;;;;26.40;12.15;;;4.30;72.80;;;;;;5028378;28;20438;-86
2021/11/16 07:01:27;;;;;;;40.13;15.57;;;4.60;71.20;;;;;;5029938;28;20120;-83
2021/11/16 07:03:53;;;;;;;32.03;14.23;;;4.80;69.00;;;;;;5029112;28;20038;-82
2021/11/16 07:06:25;;;;;;;24.48;11.88;;;5.00;69.00;;;;;;5028247;28;20032;-84
2021/11/16 07:08:54;;;;;;;26.27;11.63;;;5.20;67.10;;;;;;5028726;28;20026;-86
2021/11/16 07:11:22;;;;;;;20.42;9.98;;;5.40;66.60;;;;;;5029883;28;20492;-83
2021/11/16 07:14:09;;;;;;;18.17;9.43;;;5.50;67.00;;;;;;5029330;28;20025;-83
2021/11/16 07:16:38;;;;;;;17.08;7.60;;;5.80;60.70;;;;;;5032130;28;20036;-85
2021/11/16 07:19:08;;;;;;;12.98;7.30;;;6.00;65.20;;;;;;5032680;28;20103;-84
2021/11/16 07:21:53;;;;;;;16.98;8.93;;;6.10;64.60;;;;;;5027721;28;20037;-84
2021/11/16 07:24:25;;;;;;;16.05;8.45;;;6.30;58.70;;;;;;5025683;28;20032;-83
2021/11/16 07:27:06;;;;;;;13.43;7.90;;;6.60;63.70;;;;;;5026285;28;20571;-84
2021/11/16 07:29:41;;;;;;;19.63;10.50;;;6.90;63.80;;;;;;5025087;28;20049;-83
2021/11/16 07:32:10;;;;;;;22.30;11.18;;;7.20;60.80;;;;;;5024714;28;20120;-83
2021/11/16 07:34:38;;;;;;;16.80;9.52;;;7.40;61.40;;;;;;5025522;28;20030;-85
2021/11/16 07:37:12;;;;;;;15.82;9.52;;;7.60;60.00;;;;;;5025701;28;20025;-87
2021/11/16 07:39:51;;;;;;;12.88;8.32;;;7.80;57.40;;;;;;5027463;28;20040;-85
2021/11/16 07:42:18;;;;;;;23.50;7.93;;;7.70;56.90;;;;;;5030498;28;20045;-86
2021/11/16 07:45:02;;;;;;;17.17;10.27;;;7.80;58.40;;;;;;5031109;28;20091;-86
2021/11/16 07:47:46;;;;;;;17.92;10.23;;;8.00;53.20;;;;;;5025899;28;20041;-85
2021/11/16 07:50:30;;;;;;;17.13;8.52;;;8.20;55.70;;;;;;5058094;28;20385;-88
2021/11/16 07:53:14;;;;;;;12.10;7.32;;;8.20;50.70;;;;;;5027666;28;20093;-84
2021/11/16 07:55:43;;;;;;;11.93;7.13;;;8.30;52.40;;;;;;5030909;28;20512;-85
2021/11/16 07:58:13;;;;;;;10.32;6.78;;;8.40;55.10;;;;;;5027015;28;20021;-88
2021/11/16 08:00:44;;;;;;;11.45;6.82;;;8.80;54.60;;;;;;5030696;28;20060;-89
2021/11/16 08:03:14;;;;;;;17.05;9.18;;;8.90;53.80;;;;;;5033229;28;20487;-87
2021/11/16 08:05:45;;;;;;;17.88;10.82;;;9.10;54.60;;;;;;5031289;28;20033;-86
2021/11/16 08:11:18;;;;;;;14.48;7.30;;;9.20;47.50;;;;;;5033079;28;20283;-87
2021/11/16 08:14:06;;;;;;;12.35;6.75;;;9.50;52.20;;;;;;5032076;28;20030;-87
2021/11/16 08:16:35;;;;;;;10.15;5.90;;;9.70;51.70;;;;;;5030833;28;20026;-86
2021/11/16 08:19:07;;;;;;;9.15;5.78;;;9.80;50.80;;;;;;5030862;28;20079;-86
2021/11/16 08:21:36;;;;;;;9.68;5.80;;;9.80;50.80;;;;;;5032422;28;20017;-88
2021/11/16 08:24:06;;;;;;;9.55;6.22;;;10.00;50.60;;;;;;5032061;28;20021;-87
2021/11/16 08:26:37;;;;;;;9.20;5.82;;;10.20;49.50;;;;;;5031556;28;20022;-87
2021/11/16 08:29:03;;;;;;;;;;;10.20;49.50;;;;;;5031629;28;20503;-87
2021/11/16 08:31:34;;;;;;;9.20;3.95;;;10.30;48.60;;;;;;5030542;28;19913;-87
2021/11/16 08:34:00;;;;;;;;;;;10.40;49.10;;;;;;5031774;28;20022;-88
2021/11/16 08:36:29;;;;;;;6.45;3.90;;;10.40;46.90;;;;;;5031468;28;19958;-86
2021/11/16 08:38:57;;;;;;;9.38;4.78;;;10.60;47.70;;;;;;5031027;28;20029;-86
2021/11/16 08:41:30;;;;;;;10.40;6.10;;;10.80;48.00;;;;;;5030159;28;20442;-88
2021/11/16 08:44:14;;;;;;;9.05;5.80;;;10.90;47.90;;;;;;5031112;28;20021;-89
2021/11/16 08:46:43;;;;;;;6.45;4.55;;;11.30;47.30;;;;;;5032317;28;20476;-88
2021/11/16 08:49:24;;;;;;;12.77;6.55;;;11.50;46.50;;;;;;5030841;28;20195;-89
2021/11/16 08:51:50;;;;;;;;;;;11.60;44.10;;;;;;5030770;28;20048;-91
2021/11/16 08:54:24;;;;;;;10.80;6.82;;;11.40;43.10;;;;;;5048477;28;19905;-88
2021/11/16 08:56:54;;;;;;;7.88;5.03;;;11.50;44.00;;;;;;5040680;28;20293;-88
2021/11/16 08:59:23;;;;;;;6.30;4.03;;;11.80;45.30;;;;;;5042733;28;20048;-87
2021/11/16 09:01:55;;;;;;;6.15;4.05;;;11.80;44.00;;;;;;5030628;28;20352;-88
2021/11/16 09:04:30;;;;;;;7.50;4.15;;;11.80;45.10;;;;;;5029574;28;20025;-86
2021/11/16 09:06:57;;;;;;;5.85;3.20;;;12.00;45.10;;;;;;5027204;28;20038;-86
2021/11/16 09:09:23;;;;;;;5.18;3.30;;;12.40;44.60;;;;;;5031104;28;20021;-85
2021/11/16 09:12:03;;;;;;;6.90;4.60;;;12.60;43.70;;;;;;5029542;28;20026;-85
2021/11/16 09:14:30;;;;;;;5.10;3.40;;;12.90;42.20;;;;;;5030021;28;20037;-85
2021/11/16 09:16:57;;;;;;;6.10;4.00;;;13.20;44.20;;;;;;5029800;28;20057;-87
2021/11/16 09:19:31;;;;;;;7.75;4.20;;;13.40;43.00;;;;;;5031110;28;20073;-86
2021/11/16 09:21:59;;;;;;;10.98;7.65;;;13.60;40.60;;;;;;5030280;28;20034;-85
2021/11/16 09:24:37;;;;;;;12.45;6.18;;;13.70;42.30;;;;;;5031012;28;20030;-84
2021/11/16 09:29:36;;;;;;;10.33;7.50;;;14.10;41.50;;;;;;5033787;28;20025;-84
2021/11/16 09:32:14;;;;;;;9.73;5.68;;;14.30;41.20;;;;;;5032994;28;20029;-86
2021/11/16 09:34:43;;;;;;;8.32;5.32;;;14.60;40.70;;;;;;5032364;28;20384;-86
2021/11/16 09:37:22;;;;;;;5.05;3.70;;;14.80;40.40;;;;;;5034060;28;20075;-85
2021/11/16 09:39:52;;;;;;;7.38;4.40;;;14.80;37.80;;;;;;5034975;28;20021;-86
2021/11/16 09:42:30;;;;;;;7.97;5.22;;;14.80;39.80;;;;;;5035549;28;20103;-84
2021/11/16 09:45:07;;;;;;;7.65;5.15;;;14.90;39.40;;;;;;5032193;28;20431;-85
2021/11/16 09:47:39;;;;;;;7.75;5.18;;;14.90;38.20;;;;;;5035731;28;20458;-86
2021/11/16 09:50:25;;;;;;;8.48;5.70;;;15.00;38.00;;;;;;5034599;28;20049;-84
2021/11/16 09:52:57;;;;;;;7.38;3.88;;;15.20;36.30;;;;;;5036353;28;20029;-85
2021/11/16 09:55:30;;;;;;;6.15;4.00;;;15.40;37.90;;;;;;5033464;28;20079;-83
2021/11/16 09:58:02;;;;;;;6.78;3.65;;;15.50;37.70;;;;;;5032275;28;20063;-83
2021/11/16 10:00:38;;;;;;;7.57;3.65;;;15.50;37.60;;;;;;5036471;28;20053;-83
2021/11/16 10:03:13;;;;;;;6.53;4.30;;;15.80;36.00;;;;;;5031508;28;20021;-85
2021/11/16 10:05:42;;;;;;;4.50;3.25;;;15.80;37.30;;;;;;5029460;28;20053;-85
2021/11/16 10:08:10;;;;;;;5.20;3.20;;;15.90;37.00;;;;;;5029781;28;20116;-87
2021/11/16 10:10:38;;;;;;;6.60;4.55;;;16.20;37.20;;;;;;5033551;28;20041;-85
2021/11/16 10:13:08;;;;;;;7.25;5.10;;;16.40;36.30;;;;;;5039022;28;20036;-84
2021/11/16 10:15:37;;;;;;;8.02;4.82;;;16.40;36.00;;;;;;5036003;28;20034;-84
2021/11/16 10:18:03;;;;;;;9.68;5.35;;;16.60;36.10;;;;;;5034536;28;20029;-88
2021/11/16 10:20:34;;;;;;;7.40;4.40;;;16.80;35.90;;;;;;5036548;28;20053;-84
2021/11/16 10:23:02;;;;;;;7.13;4.78;;;16.90;34.90;;;;;;5035275;28;20116;-86
2021/11/16 10:25:32;;;;;;;7.18;4.70;;;16.80;34.80;;;;;;5031531;28;20471;-85
2021/11/16 10:28:04;;;;;;;11.15;5.90;;;16.70;34.90;;;;;;5032593;28;20025;-89
2021/11/16 10:30:31;;;;;;;6.10;4.22;;;16.70;34.70;;;;;;5030338;28;20073;-87
2021/11/16 10:33:22;;;;;;;4.88;3.17;;;16.90;35.10;;;;;;5031726;28;20028;-85
2021/11/16 10:36:01;;;;;;;6.13;3.95;;;17.10;34.20;;;;;;5033101;28;20068;-84
2021/11/16 10:38:39;;;;;;;5.32;3.63;;;17.20;34.60;;;;;;5031071;28;20363;-86
2021/11/16 10:41:11;;;;;;;3.67;2.90;;;17.30;33.10;;;;;;5030125;28;20112;-85
2021/11/16 10:43:44;;;;;;;4.53;2.83;;;17.30;34.50;;;;;;5030919;28;20479;-86
2021/11/16 10:46:11;;;;;;;8.60;5.30;;;17.50;34.80;;;;;;5032611;28;20459;-89
2021/11/16 10:48:50;;;;;;;6.55;4.22;;;17.60;34.30;;;;;;5037334;28;20021;-85
2021/11/16 10:51:17;;;;;;;6.32;3.88;;;17.70;34.00;;;;;;5030734;28;20151;-86
2021/11/16 10:53:52;;;;;;;4.78;3.35;;;17.50;33.60;;;;;;5035899;28;20056;-83
2021/11/16 10:56:22;;;;;;;4.38;2.97;;;17.50;32.30;;;;;;5030173;28;20025;-84
2021/11/16 10:58:49;;;;;;;3.75;2.75;;;17.60;33.90;;;;;;5030803;28;20029;-85
2021/11/16 11:01:22;;;;;;;4.88;3.10;;;17.60;34.00;;;;;;5029766;28;20049;-85
2021/11/16 11:03:51;;;;;;;6.47;3.33;;;17.70;33.60;;;;;;5029582;28;20023;-85
2021/11/16 11:06:34;;;;;;;7.18;4.65;;;17.90;33.40;;;;;;5028570;28;20029;-85
2021/11/16 11:09:05;;;;;;;8.73;5.40;;;18.00;31.30;;;;;;5030015;28;20029;-85
2021/11/16 11:11:39;;;;;;;9.10;5.53;;;17.80;32.40;;;;;;5031531;28;20049;-84
2021/11/16 11:14:17;;;;;;;7.05;4.72;;;17.70;33.10;;;;;;5032324;28;20025;-84
2021/11/16 11:17:01;;;;;;;8.20;5.18;;;17.60;31.80;;;;;;5037552;28;20428;-84
2021/11/16 11:19:49;;;;;;;7.20;5.03;;;17.60;30.60;;;;;;5038744;28;20087;-84
2021/11/16 11:22:23;;;;;;;7.07;4.00;;;17.50;32.60;;;;;;5045210;28;20033;-91
2021/11/16 11:27:54;;;;;;;4.95;3.50;;;17.60;32.70;;;;;;5046437;28;20033;-85
2021/11/16 11:30:20;;;;;;;7.07;4.95;;;17.60;33.30;;;;;;5048420;28;20093;-89
2021/11/16 11:32:53;;;;;;;8.60;5.65;;;17.60;33.70;;;;;;5053230;28;20021;-91
2021/11/16 11:35:23;;;;;;;7.32;5.10;;;17.70;32.00;;;;;;5051410;28;20024;-92
2021/11/16 11:38:08;;;;;;;6.75;4.63;;;17.70;32.30;;;;;;5052368;28;20105;-90
2021/11/16 11:40:38;;;;;;;6.85;4.70;;;17.60;31.20;;;;;;5050946;28;20026;-90
2021/11/16 11:43:27;;;;;;;7.53;5.10;;;17.50;32.50;;;;;;5039648;28;20075;-89
2021/11/16 11:45:52;;;;;;;6.78;4.25;;;17.70;30.60;;;;;;5028536;28;20032;-85
2021/11/16 11:48:23;;;;;;;5.82;3.53;;;18.00;32.90;;;;;;5033242;28;20021;-88
2021/11/16 11:50:54;;;;;;;9.40;6.90;;;18.30;31.90;;;;;;5033872;28;20037;-83
2021/11/16 11:53:41;;;;;;;6.80;4.82;;;18.00;31.40;;;;;;5035135;28;20498;-85
2021/11/16 11:56:13;;;;;;;5.50;3.58;;;18.00;31.30;;;;;;5032169;28;20025;-85
2021/11/16 11:58:44;;;;;;;4.90;3.42;;;18.10;32.10;;;;;;5033164;28;20383;-84
2021/11/16 12:01:14;;;;;;;;;;;18.00;31.80;;;;;;5029711;28;20041;-85
2021/11/16 12:03:47;;;;;;;6.68;3.95;;;17.40;30.20;;;;;;5030320;28;19987;-85
2021/11/16 12:06:13;;;;;;;7.47;4.60;;;17.40;31.90;;;;;;5029162;28;20109;-86
2021/11/16 12:08:39;;;;;;;6.88;4.63;;;17.30;32.20;;;;;;5033357;28;20061;-86
2021/11/16 12:11:08;;;;;;;6.43;4.38;;;17.30;32.30;;;;;;5035534;28;20499;-86
2021/11/16 12:13:35;;;;;;;6.82;4.05;;;17.70;32.10;;;;;;5031132;28;20387;-85
2021/11/16 12:16:12;;;;;;;5.57;3.90;;;17.50;32.20;;;;;;5029100;28;20460;-88
2021/11/16 12:18:40;;;;;;;6.78;4.40;;;17.20;32.20;;;;;;5028676;28;20037;-90
2021/11/16 12:21:25;;;;;;;6.35;4.50;;;17.00;32.20;;;;;;5030814;28;20399;-85
2021/11/16 12:23:57;;;;;;;7.28;4.50;;;17.10;31.10;;;;;;5029057;28;20091;-87
2021/11/16 12:26:24;;;;;;;8.68;4.25;;;17.40;32.30;;;;;;5029340;28;20117;-88
2021/11/16 12:28:50;;;;;;;5.82;3.95;;;17.60;32.10;;;;;;5030409;28;20475;-84
2021/11/16 12:31:30;;;;;;;5.53;3.90;;;17.60;32.80;;;;;;5030381;28;20064;-85
2021/11/16 12:33:57;;;;;;;5.28;3.17;;;17.60;32.10;;;;;;5033271;28;20040;-83
2021/11/16 12:36:29;;;;;;;5.57;3.17;;;17.50;32.40;;;;;;5036323;28;20089;-88
2021/11/16 12:38:56;;;;;;;7.15;3.00;;;17.40;32.10;;;;;;5030001;28;20510;-85
2021/11/16 12:41:29;;;;;;;4.68;3.10;;;17.30;32.40;;;;;;5025453;28;20025;-84
2021/11/16 12:43:58;;;;;;;7.15;3.83;;;17.50;32.30;;;;;;5025711;28;20491;-82
2021/11/16 12:46:27;;;;;;;6.68;4.20;;;17.20;32.30;;;;;;5026693;28;20117;-87
2021/11/16 12:48:55;;;;;;;7.65;4.43;;;17.10;32.30;;;;;;5029997;28;20021;-84
2021/11/16 12:51:25;;;;;;;6.05;4.10;;;17.00;32.50;;;;;;5030748;28;20040;-84
2021/11/16 12:53:56;;;;;;;8.40;6.18;;;17.00;32.50;;;;;;5027446;28;20022;-85
2021/11/16 12:56:46;;;;;;;6.18;4.65;;;16.90;32.50;;;;;;5031397;28;20032;-84
2021/11/16 12:59:16;;;;;;;5.53;3.80;;;16.80;32.40;;;;;;5012104;28;20579;-85
2021/11/16 13:01:52;;;;;;;5.20;3.30;;;16.70;32.40;;;;;;5032584;28;20096;-84
2021/11/16 13:04:39;;;;;;;4.30;3.08;;;16.50;32.40;;;;;;5028897;28;20132;-85
2021/11/16 13:07:27;;;;;;;6.88;3.70;;;16.50;32.80;;;;;;5031697;28;20164;-84
2021/11/16 13:10:05;;;;;;;5.47;3.35;;;16.40;31.80;;;;;;5032308;28;20072;-88
2021/11/16 13:12:36;;;;;;;8.23;4.03;;;16.20;32.90;;;;;;5030781;28;20034;-86
2021/11/16 13:15:34;;;;;;;8.20;4.15;;;16.20;33.00;;;;;;5030781;28;20522;-87
2021/11/16 13:18:10;;;;;;;8.70;4.00;;;16.20;33.10;;;;;;5025312;28;20671;-83